PWSweather.com
Personal Weather Stations
Station Observations
KCOGRAND2
Redlands, Southcamp Road & Dakota Circle, Grand Junction, CO 81507

Redlands, Southcamp Road & Dakota CircleGrand Junction, CO 81507

Lat: 39.055, Lon: -108.637

Elevation: 4870

Station Type: RadioShack WX200

Latest ConditionsUpdated 4:47:20 PM MST Saturday, Dec 3, 2016
Currently Today's Max Today's Min Today's Average
Temperature 32.9°F0.5°C 38.1°F3.4°C 21.6°F-5.8°C 29.0°F-1.7°C
Dew Point 11.3°F-11.5°C 11.8°F-11.2°C 7.9°F-13.4°C 9.7°F-12.4°C
Winds 1.0 mph SE1.6 kmh SE 6.0 mph N9.7 kmh N - 2.6 mph 4.2 kmh
Wind Gusts 3.1 mph5.0 kmh 11.2 mph18.0 kmh - -
Humidity 40% 60% 29% 45%
Pressure 25.16 in852.0 mb 25.25 in855.1 mb 25.13 in851.0 mb -
Hour Temp Dew Point Humidity Winds Wind Gusts Pressure Precip Precip Rate Daily Precip Total
04:47 PM 32.9°F0.5°C 11.3°F-11.5°C 40% 1.0 mph SE1.6 kmh SE 3.1 mph5.0 kmh 25.16 in852.0 mb 0.00 in0.0 mm 0.00 in0.0 mm 0.00 in0.0 mm
04:42 PM 32.7°F0.4°C 11.1°F-11.6°C 40% Calm Calm 3.6 mph5.8 kmh 25.16 in852.0 mb 0.00 in0.0 mm 0.00 in0.0 mm 0.00 in0.0 mm
04:37 PM 32.9°F0.5°C 10.8°F-11.8°C 39% Calm Calm -- 25.16 in852.0 mb 0.00 in0.0 mm 0.00 in0.0 mm 0.00 in0.0 mm
04:32 PM 33.1°F0.6°C 9.7°F-12.4°C 37% 1.0 mph SE1.6 kmh SE 3.1 mph5.0 kmh 25.16 in852.0 mb 0.00 in0.0 mm 0.00 in0.0 mm 0.00 in0.0 mm
04:27 PM 33.8°F1.0°C 10.4°F-12.0°C 37% 2.0 mph SE3.2 kmh SE 3.6 mph5.8 kmh 25.16 in852.0 mb 0.00 in0.0 mm 0.00 in0.0 mm 0.00 in0.0 mm
04:22 PM 33.8°F1.0°C 9.7°F-12.4°C 36% 2.0 mph SE3.2 kmh SE 3.6 mph5.8 kmh 25.16 in852.0 mb 0.00 in0.0 mm 0.00 in0.0 mm 0.00 in0.0 mm
04:17 PM 34.0°F1.1°C 9.3°F-12.6°C 35% 4.0 mph SE6.4 kmh SE 4.9 mph7.9 kmh 25.16 in852.0 mb 0.00 in0.0 mm 0.00 in0.0 mm 0.00 in0.0 mm
04:12 PM 34.3°F1.3°C 9.0°F-12.8°C 34% 4.0 mph SE6.4 kmh SE 5.8 mph9.3 kmh 25.16 in852.0 mb 0.00 in0.0 mm 0.00 in0.0 mm 0.00 in0.0 mm
04:07 PM 35.1°F1.7°C 8.2°F-13.2°C 32% 3.0 mph ESE4.8 kmh ESE 5.4 mph8.7 kmh 25.13 in851.0 mb 0.00 in0.0 mm 0.00 in0.0 mm 0.00 in0.0 mm
04:02 PM 35.8°F2.1°C 8.1°F-13.3°C 31% 3.0 mph ESE4.8 kmh ESE 4.9 mph7.9 kmh 25.13 in851.0 mb 0.00 in0.0 mm 0.00 in0.0 mm 0.00 in0.0 mm
03:57 PM 36.7°F2.6°C 9.0°F-12.8°C 31% 4.0 mph ESE6.4 kmh ESE 5.8 mph9.3 kmh 25.13 in851.0 mb 0.00 in0.0 mm 0.00 in0.0 mm 0.00 in0.0 mm
03:52 PM 36.9°F2.7°C 9.1°F-12.7°C 31% 5.0 mph SE8.0 kmh SE 6.7 mph10.8 kmh 25.16 in852.0 mb 0.00 in0.0 mm 0.00 in0.0 mm 0.00 in0.0 mm
03:47 PM 36.9°F2.7°C 9.1°F-12.7°C 31% 5.0 mph SE8.0 kmh SE 8.3 mph13.4 kmh 25.16 in852.0 mb 0.00 in0.0 mm 0.00 in0.0 mm 0.00 in0.0 mm
03:42 PM 37.2°F2.9°C 8.6°F-13.0°C 30% 5.0 mph SE8.0 kmh SE 8.7 mph14.0 kmh 25.16 in852.0 mb 0.00 in0.0 mm 0.00 in0.0 mm 0.00 in0.0 mm
03:37 PM 37.0°F2.8°C 8.6°F-13.0°C 30% 5.0 mph SE8.0 kmh SE 7.4 mph11.9 kmh 25.16 in852.0 mb 0.00 in0.0 mm 0.00 in0.0 mm 0.00 in0.0 mm
03:32 PM 37.0°F2.8°C 8.6°F-13.0°C 30% 5.0 mph SE8.0 kmh SE 8.3 mph13.4 kmh 25.16 in852.0 mb 0.00 in0.0 mm 0.00 in0.0 mm 0.00 in0.0 mm
03:27 PM 37.6°F3.1°C 9.0°F-12.8°C 30% 5.0 mph SE8.0 kmh SE 7.4 mph11.9 kmh 25.16 in852.0 mb 0.00 in0.0 mm 0.00 in0.0 mm 0.00 in0.0 mm
03:22 PM 37.6°F3.1°C 9.0°F-12.8°C 30% 5.0 mph SE8.0 kmh SE 7.8 mph12.6 kmh 25.16 in852.0 mb 0.00 in0.0 mm 0.00 in0.0 mm 0.00 in0.0 mm
03:17 PM 37.8°F3.2°C 9.1°F-12.7°C 30% 5.0 mph SSE8.0 kmh SSE 7.4 mph11.9 kmh 25.16 in852.0 mb 0.00 in0.0 mm 0.00 in0.0 mm 0.00 in0.0 mm
03:12 PM 37.8°F3.2°C 9.1°F-12.7°C 30% 5.0 mph S8.0 kmh S 9.2 mph14.8 kmh 25.16 in852.0 mb 0.00 in0.0 mm 0.00 in0.0 mm 0.00 in0.0 mm
03:07 PM 38.1°F3.4°C 9.5°F-12.5°C 30% 4.0 mph SW6.4 kmh SW 8.3 mph13.4 kmh 25.16 in852.0 mb 0.00 in0.0 mm 0.00 in0.0 mm 0.00 in0.0 mm
03:02 PM 37.6°F3.1°C 9.0°F-12.8°C 30% 2.0 mph SW3.2 kmh SW 4.9 mph7.9 kmh 25.16 in852.0 mb 0.00 in0.0 mm 0.00 in0.0 mm 0.00 in0.0 mm
02:57 PM 37.8°F3.2°C 8.4°F-13.1°C 29% 3.0 mph SSW4.8 kmh SSW 6.7 mph10.8 kmh 25.16 in852.0 mb 0.00 in0.0 mm 0.00 in0.0 mm 0.00 in0.0 mm
02:52 PM 37.8°F3.2°C 8.4°F-13.1°C 29% 3.0 mph SW4.8 kmh SW 6.9 mph11.1 kmh 25.16 in852.0 mb 0.00 in0.0 mm 0.00 in0.0 mm 0.00 in0.0 mm
02:47 PM 37.8°F3.2°C 9.1°F-12.7°C 30% 4.0 mph WSW6.4 kmh WSW 6.3 mph10.1 kmh 25.16 in852.0 mb 0.00 in0.0 mm 0.00 in0.0 mm 0.00 in0.0 mm
02:42 PM 37.4°F3.0°C 8.8°F-12.9°C 30% 4.0 mph WSW6.4 kmh WSW 7.8 mph12.6 kmh 25.16 in852.0 mb 0.00 in0.0 mm 0.00 in0.0 mm 0.00 in0.0 mm
02:37 PM 37.2°F2.9°C 8.6°F-13.0°C 30% 4.0 mph WSW6.4 kmh WSW 6.3 mph10.1 kmh 25.16 in852.0 mb 0.00 in0.0 mm 0.00 in0.0 mm 0.00 in0.0 mm
02:32 PM 37.2°F2.9°C 8.6°F-13.0°C 30% 4.0 mph WSW6.4 kmh WSW 6.9 mph11.1 kmh 25.16 in852.0 mb 0.00 in0.0 mm 0.00 in0.0 mm 0.00 in0.0 mm
02:27 PM 36.7°F2.6°C 8.2°F-13.2°C 30% 4.0 mph SW6.4 kmh SW 6.7 mph10.8 kmh 25.16 in852.0 mb 0.00 in0.0 mm 0.00 in0.0 mm 0.00 in0.0 mm
02:22 PM 37.4°F3.0°C 8.8°F-12.9°C 30% 5.0 mph S8.0 kmh S 8.3 mph13.4 kmh 25.16 in852.0 mb 0.00 in0.0 mm 0.00 in0.0 mm 0.00 in0.0 mm
02:17 PM 37.6°F3.1°C 9.0°F-12.8°C 30% 5.0 mph S8.0 kmh S 8.7 mph14.0 kmh 25.16 in852.0 mb 0.00 in0.0 mm 0.00 in0.0 mm 0.00 in0.0 mm
02:12 PM 37.4°F3.0°C 8.8°F-12.9°C 30% 5.0 mph SW8.0 kmh SW 7.4 mph11.9 kmh 25.16 in852.0 mb 0.00 in0.0 mm 0.00 in0.0 mm 0.00 in0.0 mm
02:07 PM 36.9°F2.7°C 8.4°F-13.1°C 30% 5.0 mph WSW8.0 kmh WSW 10.5 mph16.9 kmh 25.16 in852.0 mb 0.00 in0.0 mm 0.00 in0.0 mm 0.00 in0.0 mm
02:02 PM 37.2°F2.9°C 9.3°F-12.6°C 31% 5.0 mph SW8.0 kmh SW 10.1 mph16.3 kmh 25.16 in852.0 mb 0.00 in0.0 mm 0.00 in0.0 mm 0.00 in0.0 mm
01:57 PM 37.4°F3.0°C 8.8°F-12.9°C 30% 5.0 mph S8.0 kmh S 9.2 mph14.8 kmh 25.16 in852.0 mb 0.00 in0.0 mm 0.00 in0.0 mm 0.00 in0.0 mm
01:52 PM 38.1°F3.4°C 10.2°F-12.1°C 31% 3.0 mph SSE4.8 kmh SSE 8.3 mph13.4 kmh 25.16 in852.0 mb 0.00 in0.0 mm 0.00 in0.0 mm 0.00 in0.0 mm
01:47 PM 37.8°F3.2°C 9.1°F-12.7°C 30% 2.0 mph SSE3.2 kmh SSE 6.7 mph10.8 kmh 25.16 in852.0 mb 0.00 in0.0 mm 0.00 in0.0 mm 0.00 in0.0 mm
01:42 PM 37.9°F3.3°C 9.3°F-12.6°C 30% 3.0 mph S4.8 kmh S 4.5 mph7.2 kmh 25.16 in852.0 mb 0.00 in0.0 mm 0.00 in0.0 mm 0.00 in0.0 mm
01:37 PM 37.4°F3.0°C 9.5°F-12.5°C 31% 3.0 mph S4.8 kmh S 8.7 mph14.0 kmh 25.16 in852.0 mb 0.00 in0.0 mm 0.00 in0.0 mm 0.00 in0.0 mm
01:32 PM 37.8°F3.2°C 9.9°F-12.3°C 31% 3.0 mph S4.8 kmh S 3.6 mph5.8 kmh 25.16 in852.0 mb 0.00 in0.0 mm 0.00 in0.0 mm 0.00 in0.0 mm
01:27 PM 37.4°F3.0°C 9.5°F-12.5°C 31% 4.0 mph S6.4 kmh S 9.2 mph14.8 kmh 25.16 in852.0 mb 0.00 in0.0 mm 0.00 in0.0 mm 0.00 in0.0 mm
01:22 PM 37.6°F3.1°C 9.7°F-12.4°C 31% 5.0 mph S8.0 kmh S 8.3 mph13.4 kmh 25.16 in852.0 mb 0.00 in0.0 mm 0.00 in0.0 mm 0.00 in0.0 mm
01:17 PM 37.4°F3.0°C 9.5°F-12.5°C 31% 4.0 mph SSW6.4 kmh SSW 8.7 mph14.0 kmh 25.16 in852.0 mb 0.00 in0.0 mm 0.00 in0.0 mm 0.00 in0.0 mm
01:12 PM 37.2°F2.9°C 10.0°F-12.2°C 32% 3.0 mph W4.8 kmh W 6.9 mph11.1 kmh 25.16 in852.0 mb 0.00 in0.0 mm 0.00 in0.0 mm 0.00 in0.0 mm
01:07 PM 36.1°F2.3°C 9.1°F-12.7°C 32% 3.0 mph W4.8 kmh W 6.7 mph10.8 kmh 25.16 in852.0 mb 0.00 in0.0 mm 0.00 in0.0 mm 0.00 in0.0 mm
01:02 PM 36.5°F2.5°C 9.5°F-12.5°C 32% 3.0 mph W4.8 kmh W 4.5 mph7.2 kmh 25.16 in852.0 mb 0.00 in0.0 mm 0.00 in0.0 mm 0.00 in0.0 mm
12:57 PM 35.6°F2.0°C 8.6°F-13.0°C 32% 4.0 mph W6.4 kmh W 7.4 mph11.9 kmh 25.16 in852.0 mb 0.00 in0.0 mm 0.00 in0.0 mm 0.00 in0.0 mm
12:52 PM 35.8°F2.1°C 9.5°F-12.5°C 33% 3.0 mph NW4.8 kmh NW 8.3 mph13.4 kmh 25.16 in852.0 mb 0.00 in0.0 mm 0.00 in0.0 mm 0.00 in0.0 mm
12:47 PM 36.1°F2.3°C 9.9°F-12.3°C 33% 2.0 mph NW3.2 kmh NW 6.7 mph10.8 kmh 25.16 in852.0 mb 0.00 in0.0 mm 0.00 in0.0 mm 0.00 in0.0 mm
12:41 PM 35.8°F2.1°C 9.5°F-12.5°C 33% 4.0 mph NNW6.4 kmh NNW 6.3 mph10.1 kmh 25.16 in852.0 mb 0.00 in0.0 mm 0.00 in0.0 mm 0.00 in0.0 mm
12:36 PM 35.4°F1.9°C 9.1°F-12.7°C 33% 4.0 mph N6.4 kmh N 8.3 mph13.4 kmh 25.16 in852.0 mb 0.00 in0.0 mm 0.00 in0.0 mm 0.00 in0.0 mm
12:31 PM 35.4°F1.9°C 9.9°F-12.3°C 34% 3.0 mph NNW4.8 kmh NNW 5.8 mph9.3 kmh 25.16 in852.0 mb 0.00 in0.0 mm 0.00 in0.0 mm 0.00 in0.0 mm
12:26 PM 35.2°F1.8°C 9.7°F-12.4°C 34% 4.0 mph N6.4 kmh N 6.7 mph10.8 kmh 25.16 in852.0 mb 0.00 in0.0 mm 0.00 in0.0 mm 0.00 in0.0 mm
12:21 PM 35.1°F1.7°C 9.5°F-12.5°C 34% 4.0 mph N6.4 kmh N 6.9 mph11.1 kmh 25.19 in853.0 mb 0.00 in0.0 mm 0.00 in0.0 mm 0.00 in0.0 mm
12:16 PM 35.1°F1.7°C 9.5°F-12.5°C 34% 3.0 mph NNE4.8 kmh NNE 5.8 mph9.3 kmh 25.19 in853.0 mb 0.00 in0.0 mm 0.00 in0.0 mm 0.00 in0.0 mm
12:11 PM 34.9°F1.6°C 9.3°F-12.6°C 34% 4.0 mph ENE6.4 kmh ENE 6.3 mph10.1 kmh 25.19 in853.0 mb 0.00 in0.0 mm 0.00 in0.0 mm 0.00 in0.0 mm
12:06 PM 34.3°F1.3°C 9.5°F-12.5°C 35% 4.0 mph NE6.4 kmh NE 6.9 mph11.1 kmh 25.19 in853.0 mb 0.00 in0.0 mm 0.00 in0.0 mm 0.00 in0.0 mm
12:01 PM 34.5°F1.4°C 9.7°F-12.4°C 35% 4.0 mph N6.4 kmh N 8.7 mph14.0 kmh 25.19 in853.0 mb 0.00 in0.0 mm 0.00 in0.0 mm 0.00 in0.0 mm
11:56 AM 34.0°F1.1°C 9.3°F-12.6°C 35% 5.0 mph N8.0 kmh N 7.4 mph11.9 kmh 25.19 in853.0 mb 0.00 in0.0 mm 0.00 in0.0 mm 0.00 in0.0 mm
11:51 AM 34.9°F1.6°C 10.0°F-12.2°C 35% 4.0 mph NNE6.4 kmh NNE 7.8 mph12.6 kmh 25.19 in853.0 mb 0.00 in0.0 mm 0.00 in0.0 mm 0.00 in0.0 mm
11:46 AM 34.5°F1.4°C 9.7°F-12.4°C 35% 4.0 mph NNE6.4 kmh NNE 6.3 mph10.1 kmh 25.19 in853.0 mb 0.00 in0.0 mm 0.00 in0.0 mm 0.00 in0.0 mm
11:41 AM 34.2°F1.2°C 10.0°F-12.2°C 36% 5.0 mph NNE8.0 kmh NNE 8.3 mph13.4 kmh 25.19 in853.0 mb 0.00 in0.0 mm 0.00 in0.0 mm 0.00 in0.0 mm
11:36 AM 34.3°F1.3°C 10.8°F-11.8°C 37% 4.0 mph NNE6.4 kmh NNE 9.6 mph15.4 kmh 25.22 in854.0 mb 0.00 in0.0 mm 0.00 in0.0 mm 0.00 in0.0 mm
11:31 AM 33.6°F0.9°C 10.2°F-12.1°C 37% 5.0 mph N8.0 kmh N 6.3 mph10.1 kmh 25.22 in854.0 mb 0.00 in0.0 mm 0.00 in0.0 mm 0.00 in0.0 mm
11:26 AM 33.1°F0.6°C 9.7°F-12.4°C 37% 5.0 mph NNE8.0 kmh NNE 10.5 mph16.9 kmh 25.22 in854.0 mb 0.00 in0.0 mm 0.00 in0.0 mm 0.00 in0.0 mm
11:21 AM 33.6°F0.9°C 10.8°F-11.8°C 38% 4.0 mph NE6.4 kmh NE 5.8 mph9.3 kmh 25.22 in854.0 mb 0.00 in0.0 mm 0.00 in0.0 mm 0.00 in0.0 mm
11:16 AM 33.8°F1.0°C 11.5°F-11.4°C 39% 5.0 mph NE8.0 kmh NE 7.4 mph11.9 kmh 25.22 in854.0 mb 0.00 in0.0 mm 0.00 in0.0 mm 0.00 in0.0 mm
11:11 AM 33.3°F0.7°C 10.9°F-11.7°C 39% 5.0 mph NNE8.0 kmh NNE 7.8 mph12.6 kmh 25.22 in854.0 mb 0.00 in0.0 mm 0.00 in0.0 mm 0.00 in0.0 mm
11:06 AM 32.9°F0.5°C 11.3°F-11.5°C 40% 6.0 mph NNE9.7 kmh NNE 9.2 mph14.8 kmh 25.22 in854.0 mb 0.00 in0.0 mm 0.00 in0.0 mm 0.00 in0.0 mm
11:01 AM 32.7°F0.4°C 11.1°F-11.6°C 40% 5.0 mph NNE8.0 kmh NNE 11.2 mph18.0 kmh 25.22 in854.0 mb 0.00 in0.0 mm 0.00 in0.0 mm 0.00 in0.0 mm
10:56 AM 32.7°F0.4°C 11.1°F-11.6°C 40% 4.0 mph NNE6.4 kmh NNE 7.8 mph12.6 kmh 25.22 in854.0 mb 0.00 in0.0 mm 0.00 in0.0 mm 0.00 in0.0 mm
10:51 AM 32.7°F0.4°C 11.7°F-11.3°C 41% 4.0 mph NNE6.4 kmh NNE 7.8 mph12.6 kmh 25.25 in855.1 mb 0.00 in0.0 mm 0.00 in0.0 mm 0.00 in0.0 mm
10:46 AM 32.2°F0.1°C 11.1°F-11.6°C 41% 5.0 mph NNE8.0 kmh NNE 7.8 mph12.6 kmh 25.25 in855.1 mb 0.00 in0.0 mm 0.00 in0.0 mm 0.00 in0.0 mm
10:41 AM 31.5°F-0.3°C 10.6°F-11.9°C 41% 5.0 mph NNE8.0 kmh NNE 10.1 mph16.3 kmh 25.25 in855.1 mb 0.00 in0.0 mm 0.00 in0.0 mm 0.00 in0.0 mm
10:36 AM 31.8°F-0.1°C 10.8°F-11.8°C 41% 5.0 mph NNE8.0 kmh NNE 9.2 mph14.8 kmh 25.25 in855.1 mb 0.00 in0.0 mm 0.00 in0.0 mm 0.00 in0.0 mm
10:31 AM 31.5°F-0.3°C 10.6°F-11.9°C 41% 4.0 mph NNE6.4 kmh NNE 7.8 mph12.6 kmh 25.25 in855.1 mb 0.00 in0.0 mm 0.00 in0.0 mm 0.00 in0.0 mm
10:26 AM 31.3°F-0.4°C 10.4°F-12.0°C 41% 5.0 mph NNE8.0 kmh NNE 7.8 mph12.6 kmh 25.25 in855.1 mb 0.00 in0.0 mm 0.00 in0.0 mm 0.00 in0.0 mm
10:21 AM 31.3°F-0.4°C 10.4°F-12.0°C 41% 5.0 mph NNE8.0 kmh NNE 7.4 mph11.9 kmh 25.25 in855.1 mb 0.00 in0.0 mm 0.00 in0.0 mm 0.00 in0.0 mm
10:16 AM 30.6°F-0.8°C 10.2°F-12.1°C 42% 4.0 mph NNE6.4 kmh NNE 6.7 mph10.8 kmh 25.25 in855.1 mb 0.00 in0.0 mm 0.00 in0.0 mm 0.00 in0.0 mm
10:11 AM 30.4°F-0.9°C 10.0°F-12.2°C 42% 4.0 mph N6.4 kmh N 7.8 mph12.6 kmh 25.25 in855.1 mb 0.00 in0.0 mm 0.00 in0.0 mm 0.00 in0.0 mm
10:06 AM 30.0°F-1.1°C 10.2°F-12.1°C 43% 5.0 mph N8.0 kmh N 7.8 mph12.6 kmh 25.25 in855.1 mb 0.00 in0.0 mm 0.00 in0.0 mm 0.00 in0.0 mm
10:01 AM 29.5°F-1.4°C 9.9°F-12.3°C 43% 5.0 mph NNE8.0 kmh NNE 8.3 mph13.4 kmh 25.25 in855.1 mb 0.00 in0.0 mm 0.00 in0.0 mm 0.00 in0.0 mm
09:56 AM 29.7°F-1.3°C 9.9°F-12.3°C 43% 5.0 mph N8.0 kmh N 7.8 mph12.6 kmh 25.25 in855.1 mb 0.00 in0.0 mm 0.00 in0.0 mm 0.00 in0.0 mm
09:51 AM 29.8°F-1.2°C 10.6°F-11.9°C 44% 5.0 mph N8.0 kmh N 8.3 mph13.4 kmh 25.25 in855.1 mb 0.00 in0.0 mm 0.00 in0.0 mm 0.00 in0.0 mm
09:46 AM 28.8°F-1.8°C 10.2°F-12.1°C 45% 5.0 mph N8.0 kmh N 6.9 mph11.1 kmh 25.25 in855.1 mb 0.00 in0.0 mm 0.00 in0.0 mm 0.00 in0.0 mm
09:41 AM 28.6°F-1.9°C 10.0°F-12.2°C 45% 5.0 mph N8.0 kmh N 7.4 mph11.9 kmh 25.25 in855.1 mb 0.00 in0.0 mm 0.00 in0.0 mm 0.00 in0.0 mm
09:36 AM 28.0°F-2.2°C 9.5°F-12.5°C 45% 6.0 mph N9.7 kmh N 7.4 mph11.9 kmh 25.25 in855.1 mb 0.00 in0.0 mm 0.00 in0.0 mm 0.00 in0.0 mm
09:31 AM 28.0°F-2.2°C 10.0°F-12.2°C 46% 5.0 mph N8.0 kmh N 7.8 mph12.6 kmh 25.25 in855.1 mb 0.00 in0.0 mm 0.00 in0.0 mm 0.00 in0.0 mm
09:26 AM 28.0°F-2.2°C 10.0°F-12.2°C 46% 5.0 mph NNW8.0 kmh NNW 8.3 mph13.4 kmh 25.25 in855.1 mb 0.00 in0.0 mm 0.00 in0.0 mm 0.00 in0.0 mm
09:21 AM 28.0°F-2.2°C 10.4°F-12.0°C 47% 5.0 mph NNW8.0 kmh NNW 6.9 mph11.1 kmh 25.22 in854.0 mb 0.00 in0.0 mm 0.00 in0.0 mm 0.00 in0.0 mm
09:16 AM 27.5°F-2.5°C 10.4°F-12.0°C 48% 4.0 mph NW6.4 kmh NW 6.9 mph11.1 kmh 25.22 in854.0 mb 0.00 in0.0 mm 0.00 in0.0 mm 0.00 in0.0 mm
09:11 AM 27.3°F-2.6°C 10.2°F-12.1°C 48% 4.0 mph NW6.4 kmh NW 6.3 mph10.1 kmh 25.22 in854.0 mb 0.00 in0.0 mm 0.00 in0.0 mm 0.00 in0.0 mm
09:06 AM 27.5°F-2.5°C 10.4°F-12.0°C 48% 4.0 mph NW6.4 kmh NW 7.8 mph12.6 kmh 25.22 in854.0 mb 0.00 in0.0 mm 0.00 in0.0 mm 0.00 in0.0 mm
09:01 AM 27.3°F-2.6°C 10.2°F-12.1°C 48% 4.0 mph NW6.4 kmh NW 6.3 mph10.1 kmh 25.22 in854.0 mb 0.00 in0.0 mm 0.00 in0.0 mm 0.00 in0.0 mm
08:56 AM 27.0°F-2.8°C 9.9°F-12.3°C 48% 4.0 mph NW6.4 kmh NW 6.3 mph10.1 kmh 25.22 in854.0 mb 0.00 in0.0 mm 0.00 in0.0 mm 0.00 in0.0 mm
08:51 AM 27.0°F-2.8°C 9.9°F-12.3°C 48% 4.0 mph W6.4 kmh W 6.3 mph10.1 kmh 25.22 in854.0 mb 0.00 in0.0 mm 0.00 in0.0 mm 0.00 in0.0 mm
08:46 AM 27.1°F-2.7°C 10.9°F-11.7°C 50% 4.0 mph NW6.4 kmh NW 6.9 mph11.1 kmh 25.22 in854.0 mb 0.00 in0.0 mm 0.00 in0.0 mm 0.00 in0.0 mm
08:41 AM 27.3°F-2.6°C 9.9°F-12.3°C 47% 2.0 mph NNW3.2 kmh NNW 4.9 mph7.9 kmh 25.22 in854.0 mb 0.00 in0.0 mm 0.00 in0.0 mm 0.00 in0.0 mm
08:36 AM 27.7°F-2.4°C 10.0°F-12.2°C 47% 2.0 mph N3.2 kmh N 5.4 mph8.7 kmh 25.22 in854.0 mb 0.00 in0.0 mm 0.00 in0.0 mm 0.00 in0.0 mm
08:31 AM 27.3°F-2.6°C 10.2°F-12.1°C 48% 2.0 mph N3.2 kmh N 5.4 mph8.7 kmh 25.22 in854.0 mb 0.00 in0.0 mm 0.00 in0.0 mm 0.00 in0.0 mm
08:26 AM 27.3°F-2.6°C 10.2°F-12.1°C 48% 1.0 mph N1.6 kmh N 4.5 mph7.2 kmh 25.22 in854.0 mb 0.00 in0.0 mm 0.00 in0.0 mm 0.00 in0.0 mm
08:21 AM 27.1°F-2.7°C 10.9°F-11.7°C 50% Calm Calm 3.1 mph5.0 kmh 25.22 in854.0 mb 0.00 in0.0 mm 0.00 in0.0 mm 0.00 in0.0 mm
08:16 AM 26.4°F-3.1°C 10.8°F-11.8°C 51% Calm Calm 3.1 mph5.0 kmh 25.22 in854.0 mb 0.00 in0.0 mm 0.00 in0.0 mm 0.00 in0.0 mm
08:11 AM 26.1°F-3.3°C 10.4°F-12.0°C 51% Calm Calm 3.6 mph5.8 kmh 25.22 in854.0 mb 0.00 in0.0 mm 0.00 in0.0 mm 0.00 in0.0 mm
08:06 AM 25.5°F-3.6°C 10.4°F-12.0°C 52% 1.0 mph N1.6 kmh N 4.5 mph7.2 kmh 25.22 in854.0 mb 0.00 in0.0 mm 0.00 in0.0 mm 0.00 in0.0 mm
08:01 AM 24.6°F-4.1°C 9.5°F-12.5°C 52% Calm Calm 5.8 mph9.3 kmh 25.22 in854.0 mb 0.00 in0.0 mm 0.00 in0.0 mm 0.00 in0.0 mm
07:56 AM 24.4°F-4.2°C 9.3°F-12.6°C 52% Calm Calm 3.6 mph5.8 kmh 25.22 in854.0 mb 0.00 in0.0 mm 0.00 in0.0 mm 0.00 in0.0 mm
07:51 AM 23.9°F-4.5°C 8.8°F-12.9°C 52% 1.0 mph N1.6 kmh N 4.9 mph7.9 kmh 25.22 in854.0 mb 0.00 in0.0 mm 0.00 in0.0 mm 0.00 in0.0 mm
07:46 AM 23.9°F-4.5°C 9.3°F-12.6°C 53% 3.0 mph N4.8 kmh N 6.3 mph10.1 kmh 25.22 in854.0 mb 0.00 in0.0 mm 0.00 in0.0 mm 0.00 in0.0 mm
07:41 AM 24.1°F-4.4°C 9.5°F-12.5°C 53% 4.0 mph N6.4 kmh N 6.9 mph11.1 kmh 25.22 in854.0 mb 0.00 in0.0 mm 0.00 in0.0 mm 0.00 in0.0 mm
07:36 AM 24.1°F-4.4°C 9.9°F-12.3°C 54% 4.0 mph N6.4 kmh N 7.4 mph11.9 kmh 25.22 in854.0 mb 0.00 in0.0 mm 0.00 in0.0 mm 0.00 in0.0 mm
07:31 AM 23.9°F-4.5°C 10.0°F-12.2°C 55% 2.0 mph N3.2 kmh N 6.3 mph10.1 kmh 25.22 in854.0 mb 0.00 in0.0 mm 0.00 in0.0 mm 0.00 in0.0 mm
07:26 AM 23.9°F-4.5°C 10.0°F-12.2°C 55% 2.0 mph N3.2 kmh N 4.9 mph7.9 kmh 25.22 in854.0 mb 0.00 in0.0 mm 0.00 in0.0 mm 0.00 in0.0 mm
07:21 AM 23.4°F-4.8°C 10.0°F-12.2°C 56% 3.0 mph NNE4.8 kmh NNE 6.9 mph11.1 kmh 25.22 in854.0 mb 0.00 in0.0 mm 0.00 in0.0 mm 0.00 in0.0 mm
07:16 AM 23.4°F-4.8°C 9.7°F-12.4°C 55% 4.0 mph N6.4 kmh N 6.7 mph10.8 kmh 25.22 in854.0 mb 0.00 in0.0 mm 0.00 in0.0 mm 0.00 in0.0 mm
07:11 AM 23.9°F-4.5°C 10.9°F-11.7°C 57% 3.0 mph N4.8 kmh N 7.8 mph12.6 kmh 25.22 in854.0 mb 0.00 in0.0 mm 0.00 in0.0 mm 0.00 in0.0 mm
07:06 AM 23.4°F-4.8°C 10.4°F-12.0°C 57% 2.0 mph N3.2 kmh N 4.9 mph7.9 kmh 25.22 in854.0 mb 0.00 in0.0 mm 0.00 in0.0 mm 0.00 in0.0 mm
07:01 AM 23.0°F-5.0°C 10.0°F-12.2°C 57% 3.0 mph N4.8 kmh N 5.4 mph8.7 kmh 25.22 in854.0 mb 0.00 in0.0 mm 0.00 in0.0 mm 0.00 in0.0 mm
06:56 AM 22.8°F-5.1°C 10.2°F-12.1°C 58% 2.0 mph N3.2 kmh N 4.9 mph7.9 kmh 25.22 in854.0 mb 0.00 in0.0 mm 0.00 in0.0 mm 0.00 in0.0 mm
06:51 AM 22.5°F-5.3°C 9.9°F-12.3°C 58% 1.0 mph N1.6 kmh N 4.0 mph6.4 kmh 25.22 in854.0 mb 0.00 in0.0 mm 0.00 in0.0 mm 0.00 in0.0 mm
06:46 AM 22.6°F-5.2°C 10.6°F-11.9°C 59% 1.0 mph N1.6 kmh N 3.1 mph5.0 kmh 25.22 in854.0 mb 0.00 in0.0 mm 0.00 in0.0 mm 0.00 in0.0 mm
06:41 AM 22.8°F-5.1°C 11.1°F-11.6°C 60% 1.0 mph N1.6 kmh N 3.6 mph5.8 kmh 25.22 in854.0 mb 0.00 in0.0 mm 0.00 in0.0 mm 0.00 in0.0 mm
06:36 AM 22.1°F-5.5°C 10.0°F-12.2°C 59% Calm Calm 2.7 mph4.3 kmh 25.22 in854.0 mb 0.00 in0.0 mm 0.00 in0.0 mm 0.00 in0.0 mm
06:31 AM 21.7°F-5.7°C 9.7°F-12.4°C 59% Calm Calm -- 25.22 in854.0 mb 0.00 in0.0 mm 0.00 in0.0 mm 0.00 in0.0 mm
06:26 AM 21.7°F-5.7°C 9.7°F-12.4°C 59% Calm Calm 4.0 mph6.4 kmh 25.22 in854.0 mb 0.00 in0.0 mm 0.00 in0.0 mm 0.00 in0.0 mm
06:21 AM 21.6°F-5.8°C 9.5°F-12.5°C 59% 1.0 mph N1.6 kmh N 3.1 mph5.0 kmh 25.22 in854.0 mb 0.00 in0.0 mm 0.00 in0.0 mm 0.00 in0.0 mm
06:16 AM 21.9°F-5.6°C 9.9°F-12.3°C 59% 1.0 mph N1.6 kmh N 4.9 mph7.9 kmh 25.22 in854.0 mb 0.00 in0.0 mm 0.00 in0.0 mm 0.00 in0.0 mm
06:11 AM 22.1°F-5.5°C 9.7°F-12.4°C 58% Calm Calm 4.9 mph7.9 kmh 25.22 in854.0 mb 0.00 in0.0 mm 0.00 in0.0 mm 0.00 in0.0 mm
06:06 AM 21.9°F-5.6°C 9.5°F-12.5°C 58% Calm Calm -- 25.22 in854.0 mb 0.00 in0.0 mm 0.00 in0.0 mm 0.00 in0.0 mm
06:01 AM 21.9°F-5.6°C 9.5°F-12.5°C 58% Calm Calm -- 25.22 in854.0 mb 0.00 in0.0 mm 0.00 in0.0 mm 0.00 in0.0 mm
05:56 AM 21.9°F-5.6°C 9.1°F-12.7°C 57% Calm Calm -- 25.22 in854.0 mb 0.00 in0.0 mm 0.00 in0.0 mm 0.00 in0.0 mm
05:51 AM 21.7°F-5.7°C 9.0°F-12.8°C 57% Calm Calm 3.1 mph5.0 kmh 25.22 in854.0 mb 0.00 in0.0 mm 0.00 in0.0 mm 0.00 in0.0 mm
05:46 AM 22.6°F-5.2°C 9.7°F-12.4°C 57% 1.0 mph N1.6 kmh N 4.9 mph7.9 kmh 25.22 in854.0 mb 0.00 in0.0 mm 0.00 in0.0 mm 0.00 in0.0 mm
05:41 AM 23.2°F-4.9°C 10.6°F-11.9°C 58% Calm Calm 4.5 mph7.2 kmh 25.22 in854.0 mb 0.00 in0.0 mm 0.00 in0.0 mm 0.00 in0.0 mm
05:36 AM 22.1°F-5.5°C 9.1°F-12.7°C 57% Calm Calm 6.3 mph10.1 kmh 25.22 in854.0 mb 0.00 in0.0 mm 0.00 in0.0 mm 0.00 in0.0 mm
05:31 AM 22.5°F-5.3°C 9.5°F-12.5°C 57% Calm Calm 6.9 mph11.1 kmh 25.22 in854.0 mb 0.00 in0.0 mm 0.00 in0.0 mm 0.00 in0.0 mm
05:26 AM 22.1°F-5.5°C 8.8°F-12.9°C 56% Calm Calm -- 25.22 in854.0 mb 0.00 in0.0 mm 0.00 in0.0 mm 0.00 in0.0 mm
05:21 AM 22.1°F-5.5°C 8.4°F-13.1°C 55% Calm Calm -- 25.22 in854.0 mb 0.00 in0.0 mm 0.00 in0.0 mm 0.00 in0.0 mm
05:16 AM 22.6°F-5.2°C 9.0°F-12.8°C 55% Calm Calm -- 25.22 in854.0 mb 0.00 in0.0 mm 0.00 in0.0 mm 0.00 in0.0 mm
05:11 AM 23.2°F-4.9°C 9.9°F-12.3°C 56% Calm Calm -- 25.22 in854.0 mb 0.00 in0.0 mm 0.00 in0.0 mm 0.00 in0.0 mm
05:06 AM 22.8°F-5.1°C 9.1°F-12.7°C 55% Calm Calm 4.0 mph6.4 kmh 25.19 in853.0 mb 0.00 in0.0 mm 0.00 in0.0 mm 0.00 in0.0 mm
05:01 AM 22.8°F-5.1°C 9.1°F-12.7°C 55% Calm Calm -- 25.19 in853.0 mb 0.00 in0.0 mm 0.00 in0.0 mm 0.00 in0.0 mm
04:56 AM 22.8°F-5.1°C 8.8°F-12.9°C 54% Calm Calm -- 25.19 in853.0 mb 0.00 in0.0 mm 0.00 in0.0 mm 0.00 in0.0 mm
04:51 AM 23.2°F-4.9°C 9.0°F-12.8°C 54% Calm Calm -- 25.19 in853.0 mb 0.00 in0.0 mm 0.00 in0.0 mm 0.00 in0.0 mm
04:46 AM 23.7°F-4.6°C 9.1°F-12.7°C 53% Calm Calm -- 25.19 in853.0 mb 0.00 in0.0 mm 0.00 in0.0 mm 0.00 in0.0 mm
04:41 AM 23.9°F-4.5°C 9.3°F-12.6°C 53% Calm Calm -- 25.19 in853.0 mb 0.00 in0.0 mm 0.00 in0.0 mm 0.00 in0.0 mm
04:36 AM 23.9°F-4.5°C 9.3°F-12.6°C 53% Calm Calm -- 25.19 in853.0 mb 0.00 in0.0 mm 0.00 in0.0 mm 0.00 in0.0 mm
04:31 AM 23.9°F-4.5°C 9.7°F-12.4°C 54% 1.0 mph N1.6 kmh N 3.1 mph5.0 kmh 25.19 in853.0 mb 0.00 in0.0 mm 0.00 in0.0 mm 0.00 in0.0 mm
04:26 AM 23.9°F-4.5°C 9.7°F-12.4°C 54% 1.0 mph N1.6 kmh N 5.8 mph9.3 kmh 25.19 in853.0 mb 0.00 in0.0 mm 0.00 in0.0 mm 0.00 in0.0 mm
04:21 AM 23.2°F-4.9°C 8.6°F-13.0°C 53% Calm Calm 4.5 mph7.2 kmh 25.19 in853.0 mb 0.00 in0.0 mm 0.00 in0.0 mm 0.00 in0.0 mm
04:16 AM 23.2°F-4.9°C 8.6°F-13.0°C 53% 1.0 mph N1.6 kmh N 4.5 mph7.2 kmh 25.19 in853.0 mb 0.00 in0.0 mm 0.00 in0.0 mm 0.00 in0.0 mm
04:11 AM 23.5°F-4.7°C 9.0°F-12.8°C 53% 2.0 mph N3.2 kmh N 5.4 mph8.7 kmh 25.19 in853.0 mb 0.00 in0.0 mm 0.00 in0.0 mm 0.00 in0.0 mm
04:06 AM 23.9°F-4.5°C 8.8°F-12.9°C 52% 2.0 mph N3.2 kmh N 5.8 mph9.3 kmh 25.19 in853.0 mb 0.00 in0.0 mm 0.00 in0.0 mm 0.00 in0.0 mm
04:01 AM 24.4°F-4.2°C 9.3°F-12.6°C 52% 1.0 mph N1.6 kmh N 4.0 mph6.4 kmh 25.19 in853.0 mb 0.00 in0.0 mm 0.00 in0.0 mm 0.00 in0.0 mm
03:56 AM 24.1°F-4.4°C 9.0°F-12.8°C 52% 2.0 mph N3.2 kmh N 4.5 mph7.2 kmh 25.19 in853.0 mb 0.00 in0.0 mm 0.00 in0.0 mm 0.00 in0.0 mm
03:51 AM 24.4°F-4.2°C 9.3°F-12.6°C 52% 3.0 mph N4.8 kmh N 4.5 mph7.2 kmh 25.22 in854.0 mb 0.00 in0.0 mm 0.00 in0.0 mm 0.00 in0.0 mm
03:46 AM 24.4°F-4.2°C 9.3°F-12.6°C 52% 2.0 mph N3.2 kmh N 4.9 mph7.9 kmh 25.22 in854.0 mb 0.00 in0.0 mm 0.00 in0.0 mm 0.00 in0.0 mm
03:41 AM 23.7°F-4.6°C 8.8°F-12.9°C 52% 2.0 mph N3.2 kmh N 4.5 mph7.2 kmh 25.22 in854.0 mb 0.00 in0.0 mm 0.00 in0.0 mm 0.00 in0.0 mm
03:36 AM 24.3°F-4.3°C 9.1°F-12.7°C 52% 2.0 mph NNE3.2 kmh NNE 5.4 mph8.7 kmh 25.19 in853.0 mb 0.00 in0.0 mm 0.00 in0.0 mm 0.00 in0.0 mm
03:30 AM 24.4°F-4.2°C 9.0°F-12.8°C 51% Calm Calm 5.4 mph8.7 kmh 25.19 in853.0 mb 0.00 in0.0 mm 0.00 in0.0 mm 0.00 in0.0 mm
03:25 AM 24.1°F-4.4°C 8.2°F-13.2°C 50% Calm Calm -- 25.19 in853.0 mb 0.00 in0.0 mm 0.00 in0.0 mm 0.00 in0.0 mm
03:20 AM 25.0°F-3.9°C 9.5°F-12.5°C 51% Calm Calm -- 25.22 in854.0 mb 0.00 in0.0 mm 0.00 in0.0 mm 0.00 in0.0 mm
03:15 AM 24.8°F-4.0°C 9.3°F-12.6°C 51% Calm Calm -- 25.22 in854.0 mb 0.00 in0.0 mm 0.00 in0.0 mm 0.00 in0.0 mm
03:10 AM 25.0°F-3.9°C 9.5°F-12.5°C 51% Calm Calm -- 25.22 in854.0 mb 0.00 in0.0 mm 0.00 in0.0 mm 0.00 in0.0 mm
03:05 AM 24.6°F-4.1°C 8.6°F-13.0°C 50% Calm Calm -- 25.22 in854.0 mb 0.00 in0.0 mm 0.00 in0.0 mm 0.00 in0.0 mm
03:00 AM 24.4°F-4.2°C 8.4°F-13.1°C 50% 1.0 mph NE1.6 kmh NE 4.5 mph7.2 kmh 25.22 in854.0 mb 0.00 in0.0 mm 0.00 in0.0 mm 0.00 in0.0 mm
02:55 AM 24.8°F-4.0°C 8.8°F-12.9°C 50% 2.0 mph NNE3.2 kmh NNE 5.8 mph9.3 kmh 25.22 in854.0 mb 0.00 in0.0 mm 0.00 in0.0 mm 0.00 in0.0 mm
02:50 AM 25.3°F-3.7°C 9.0°F-12.8°C 49% 3.0 mph NNE4.8 kmh NNE 5.4 mph8.7 kmh 25.22 in854.0 mb 0.00 in0.0 mm 0.00 in0.0 mm 0.00 in0.0 mm
02:45 AM 24.8°F-4.0°C 7.9°F-13.4°C 48% 3.0 mph NNE4.8 kmh NNE 5.8 mph9.3 kmh 25.22 in854.0 mb 0.00 in0.0 mm 0.00 in0.0 mm 0.00 in0.0 mm
02:40 AM 25.3°F-3.7°C 7.9°F-13.4°C 47% 4.0 mph NNE6.4 kmh NNE 6.3 mph10.1 kmh 25.22 in854.0 mb 0.00 in0.0 mm 0.00 in0.0 mm 0.00 in0.0 mm
02:35 AM 26.1°F-3.3°C 8.6°F-13.0°C 47% 5.0 mph N8.0 kmh N 6.7 mph10.8 kmh 25.22 in854.0 mb 0.00 in0.0 mm 0.00 in0.0 mm 0.00 in0.0 mm
02:30 AM 26.1°F-3.3°C 9.1°F-12.7°C 48% 5.0 mph N8.0 kmh N 7.8 mph12.6 kmh 25.22 in854.0 mb 0.00 in0.0 mm 0.00 in0.0 mm 0.00 in0.0 mm
02:25 AM 25.5°F-3.6°C 9.0°F-12.8°C 49% 4.0 mph NNE6.4 kmh NNE 6.3 mph10.1 kmh 25.22 in854.0 mb 0.00 in0.0 mm 0.00 in0.0 mm 0.00 in0.0 mm
02:20 AM 25.7°F-3.5°C 9.1°F-12.7°C 49% 3.0 mph NNE4.8 kmh NNE 4.9 mph7.9 kmh 25.19 in853.0 mb 0.00 in0.0 mm 0.00 in0.0 mm 0.00 in0.0 mm
02:15 AM 25.3°F-3.7°C 9.0°F-12.8°C 49% 3.0 mph NNE4.8 kmh NNE 5.8 mph9.3 kmh 25.19 in853.0 mb 0.00 in0.0 mm 0.00 in0.0 mm 0.00 in0.0 mm
02:10 AM 25.5°F-3.6°C 9.0°F-12.8°C 49% 4.0 mph NNE6.4 kmh NNE 6.3 mph10.1 kmh 25.19 in853.0 mb 0.00 in0.0 mm 0.00 in0.0 mm 0.00 in0.0 mm
02:05 AM 25.5°F-3.6°C 9.0°F-12.8°C 49% 4.0 mph NNE6.4 kmh NNE 6.7 mph10.8 kmh 25.19 in853.0 mb 0.00 in0.0 mm 0.00 in0.0 mm 0.00 in0.0 mm
02:00 AM 26.2°F-3.2°C 9.3°F-12.6°C 48% 4.0 mph NNE6.4 kmh NNE 7.4 mph11.9 kmh 25.19 in853.0 mb 0.00 in0.0 mm 0.00 in0.0 mm 0.00 in0.0 mm
01:55 AM 26.6°F-3.0°C 9.5°F-12.5°C 48% 5.0 mph N8.0 kmh N 9.2 mph14.8 kmh 25.19 in853.0 mb 0.00 in0.0 mm 0.00 in0.0 mm 0.00 in0.0 mm
01:50 AM 26.8°F-2.9°C 10.6°F-11.9°C 50% 5.0 mph N8.0 kmh N 8.7 mph14.0 kmh 25.19 in853.0 mb 0.00 in0.0 mm 0.00 in0.0 mm 0.00 in0.0 mm
01:45 AM 25.9°F-3.4°C 10.8°F-11.8°C 52% 4.0 mph NNE6.4 kmh NNE 7.8 mph12.6 kmh 25.19 in853.0 mb 0.00 in0.0 mm 0.00 in0.0 mm 0.00 in0.0 mm
01:40 AM 26.2°F-3.2°C 11.8°F-11.2°C 54% 2.0 mph NNE3.2 kmh NNE 5.8 mph9.3 kmh 25.19 in853.0 mb 0.00 in0.0 mm 0.00 in0.0 mm 0.00 in0.0 mm
01:35 AM 24.8°F-4.0°C 10.9°F-11.7°C 55% 1.0 mph NNE1.6 kmh NNE 4.5 mph7.2 kmh 25.19 in853.0 mb 0.00 in0.0 mm 0.00 in0.0 mm 0.00 in0.0 mm
01:30 AM 24.1°F-4.4°C 9.9°F-12.3°C 54% Calm Calm 4.5 mph7.2 kmh 25.19 in853.0 mb 0.00 in0.0 mm 0.00 in0.0 mm 0.00 in0.0 mm
01:25 AM 23.7°F-4.6°C 9.5°F-12.5°C 54% Calm Calm -- 25.19 in853.0 mb 0.00 in0.0 mm 0.00 in0.0 mm 0.00 in0.0 mm
01:20 AM 24.1°F-4.4°C 9.5°F-12.5°C 53% Calm Calm -- 25.19 in853.0 mb 0.00 in0.0 mm 0.00 in0.0 mm 0.00 in0.0 mm
01:15 AM 24.4°F-4.2°C 9.9°F-12.3°C 53% Calm Calm -- 25.19 in853.0 mb 0.00 in0.0 mm 0.00 in0.0 mm 0.00 in0.0 mm
01:10 AM 24.6°F-4.1°C 10.0°F-12.2°C 53% 1.0 mph NNE1.6 kmh NNE -- 25.19 in853.0 mb 0.00 in0.0 mm 0.00 in0.0 mm 0.00 in0.0 mm
01:05 AM 25.0°F-3.9°C 10.2°F-12.1°C 53% 1.0 mph NNE1.6 kmh NNE 4.9 mph7.9 kmh 25.19 in853.0 mb 0.00 in0.0 mm 0.00 in0.0 mm 0.00 in0.0 mm
01:00 AM 25.0°F-3.9°C 10.2°F-12.1°C 53% Calm Calm -- 25.19 in853.0 mb 0.00 in0.0 mm 0.00 in0.0 mm 0.00 in0.0 mm
12:55 AM 25.5°F-3.6°C 10.8°F-11.8°C 53% Calm Calm 4.9 mph7.9 kmh 25.19 in853.0 mb 0.00 in0.0 mm 0.00 in0.0 mm 0.00 in0.0 mm
12:50 AM 26.1°F-3.3°C 11.3°F-11.5°C 53% Calm Calm -- 25.19 in853.0 mb 0.00 in0.0 mm 0.00 in0.0 mm 0.00 in0.0 mm
12:45 AM 26.2°F-3.2°C 11.8°F-11.2°C 54% Calm Calm -- 25.19 in853.0 mb 0.00 in0.0 mm 0.00 in0.0 mm 0.00 in0.0 mm
12:40 AM 25.3°F-3.7°C 11.5°F-11.4°C 55% Calm Calm 3.6 mph5.8 kmh 25.19 in853.0 mb 0.00 in0.0 mm 0.00 in0.0 mm 0.00 in0.0 mm
12:35 AM 24.4°F-4.2°C 10.2°F-12.1°C 54% Calm Calm -- 25.19 in853.0 mb 0.00 in0.0 mm 0.00 in0.0 mm 0.00 in0.0 mm
12:30 AM 24.8°F-4.0°C 10.9°F-11.7°C 55% Calm Calm 3.1 mph5.0 kmh 25.19 in853.0 mb 0.00 in0.0 mm 0.00 in0.0 mm 0.00 in0.0 mm
12:25 AM 25.2°F-3.8°C 11.3°F-11.5°C 55% 1.0 mph NNE1.6 kmh NNE 4.5 mph7.2 kmh 25.19 in853.0 mb 0.00 in0.0 mm 0.00 in0.0 mm 0.00 in0.0 mm
12:20 AM 25.0°F-3.9°C 11.1°F-11.6°C 55% Calm Calm 3.6 mph5.8 kmh 25.19 in853.0 mb 0.00 in0.0 mm 0.00 in0.0 mm 0.00 in0.0 mm
12:15 AM 24.8°F-4.0°C 10.6°F-11.9°C 54% Calm Calm -- 25.19 in853.0 mb 0.00 in0.0 mm 0.00 in0.0 mm 0.00 in0.0 mm
12:10 AM 24.3°F-4.3°C 10.0°F-12.2°C 54% Calm Calm -- 25.19 in853.0 mb 0.00 in0.0 mm 0.00 in0.0 mm 0.00 in0.0 mm
12:05 AM 24.6°F-4.1°C 10.0°F-12.2°C 53% 1.0 mph NNE1.6 kmh NNE 4.5 mph7.2 kmh 25.19 in853.0 mb 0.00 in0.0 mm 0.00 in0.0 mm 0.00 in0.0 mm
12:00 AM 25.5°F-3.6°C 10.4°F-12.0°C 52% Calm Calm 4.5 mph7.2 kmh 25.19 in853.0 mb 0.00 in0.0 mm 0.00 in0.0 mm 0.00 in0.0 mm